createdAt,value
2017-01-28T00:00:02.729Z,1008.69
2017-01-28T00:01:16.320Z,1008.68
2017-01-28T00:02:29.888Z,1008.62
2017-01-28T00:03:44.090Z,1008.6
2017-01-28T00:04:57.975Z,1008.63
2017-01-28T00:06:14.452Z,1008.6
2017-01-28T00:07:32.311Z,1008.63
2017-01-28T00:08:46.919Z,1008.59
2017-01-28T00:10:00.571Z,1008.6
2017-01-28T00:11:15.204Z,1008.55
2017-01-28T00:12:28.825Z,1008.59
2017-01-28T00:13:42.560Z,1008.58
2017-01-28T00:14:56.275Z,1008.63
2017-01-28T00:16:10.815Z,1008.61
2017-01-28T00:17:24.677Z,1008.63
2017-01-28T00:18:39.506Z,1008.64
2017-01-28T00:19:53.956Z,1008.64
2017-01-28T00:21:08.652Z,1008.61
2017-01-28T00:22:22.396Z,1008.62
2017-01-28T00:23:36.352Z,1008.6
2017-01-28T00:24:50.058Z,1008.59
2017-01-28T00:26:03.666Z,1008.61
2017-01-28T00:27:18.035Z,1008.61
2017-01-28T00:28:32.103Z,1008.57
2017-01-28T00:29:46.097Z,1008.59
2017-01-28T00:31:00.896Z,1008.55
2017-01-28T00:32:14.949Z,1008.52
2017-01-28T00:33:29.093Z,1008.5
2017-01-28T00:34:44.193Z,1008.55
2017-01-28T00:35:58.346Z,1008.5
2017-01-28T00:37:11.786Z,1008.55
2017-01-28T00:38:25.235Z,1008.57
2017-01-28T00:39:38.928Z,1008.56
2017-01-28T00:40:53.965Z,1008.57
2017-01-28T00:42:07.735Z,1008.57
2017-01-28T00:43:21.662Z,1008.57
2017-01-28T00:44:35.155Z,1008.56
2017-01-28T00:45:48.712Z,1008.56
2017-01-28T00:47:02.397Z,1008.55
2017-01-28T00:48:16.659Z,1008.5
2017-01-28T00:49:30.166Z,1008.51
2017-01-28T00:50:44.095Z,1008.51
2017-01-28T00:51:58.035Z,1008.52
2017-01-28T00:53:12.126Z,1008.52
2017-01-28T00:54:25.874Z,1008.49
2017-01-28T00:55:39.885Z,1008.48
2017-01-28T00:56:53.399Z,1008.47
2017-01-28T00:58:06.976Z,1008.44
2017-01-28T00:59:21.547Z,1008.46
2017-01-28T01:00:37.104Z,1008.47
2017-01-28T01:01:50.558Z,1008.48
2017-01-28T01:03:04.066Z,1008.46
2017-01-28T01:04:18.043Z,1008.52
2017-01-28T01:05:31.619Z,1008.45
2017-01-28T01:06:45.511Z,1008.4
2017-01-28T01:07:58.991Z,1008.42
2017-01-28T01:09:12.543Z,1008.44
2017-01-28T01:10:26.845Z,1008.46
2017-01-28T01:11:42.655Z,1008.46
2017-01-28T01:12:57.006Z,1008.45
2017-01-28T01:14:10.472Z,1008.4
2017-01-28T01:15:23.914Z,1008.43
2017-01-28T01:16:37.420Z,1008.37
2017-01-28T01:17:50.937Z,1008.4
2017-01-28T01:19:05.385Z,1008.39
2017-01-28T01:20:18.842Z,1008.34
2017-01-28T01:21:32.819Z,1008.36
2017-01-28T01:22:46.758Z,1008.41
2017-01-28T01:24:00.191Z,1008.39
2017-01-28T01:25:14.546Z,1008.35
2017-01-28T01:26:28.385Z,1008.42
2017-01-28T01:27:41.879Z,1008.44
2017-01-28T01:28:55.407Z,1008.43
2017-01-28T01:30:09.306Z,1008.42
2017-01-28T01:31:23.720Z,1008.39
2017-01-28T01:32:37.221Z,1008.4
2017-01-28T01:33:50.685Z,1008.37
2017-01-28T01:35:04.572Z,1008.37
2017-01-28T01:36:18.070Z,1008.41
2017-01-28T01:37:32.274Z,1008.39
2017-01-28T01:38:46.977Z,1008.38
2017-01-28T01:40:00.874Z,1008.39
2017-01-28T01:41:14.355Z,1008.39
2017-01-28T01:42:27.880Z,1008.38
2017-01-28T01:43:41.906Z,1008.41
2017-01-28T01:44:55.876Z,1008.4
2017-01-28T01:46:09.373Z,1008.42
2017-01-28T01:47:22.820Z,1008.42
2017-01-28T01:48:36.963Z,1008.43
2017-01-28T01:49:50.784Z,1008.44
2017-01-28T01:51:04.781Z,1008.47
2017-01-28T01:52:18.351Z,1008.46
2017-01-28T01:53:31.814Z,1008.42
2017-01-28T01:54:45.421Z,1008.41
2017-01-28T01:55:59.220Z,1008.41
2017-01-28T01:57:12.709Z,1008.38
2017-01-28T01:58:26.645Z,1008.41
2017-01-28T01:59:40.208Z,1008.42
2017-01-28T02:00:53.691Z,1008.42
2017-01-28T02:02:07.479Z,1008.43
2017-01-28T02:03:21.485Z,1008.4
2017-01-28T02:04:36.611Z,1008.41
2017-01-28T02:05:50.569Z,1008.41
2017-01-28T02:07:04.439Z,1008.4
2017-01-28T02:08:18.262Z,1008.47
2017-01-28T02:09:31.780Z,1008.42
2017-01-28T02:10:45.852Z,1008.41
2017-01-28T02:11:59.320Z,1008.36
2017-01-28T02:13:13.294Z,1008.37
2017-01-28T02:14:27.582Z,1008.36
2017-01-28T02:15:42.312Z,1008.4
2017-01-28T02:16:55.964Z,1008.38
2017-01-28T02:18:09.452Z,1008.43
2017-01-28T02:19:22.954Z,1008.37
2017-01-28T02:20:36.812Z,1008.41
2017-01-28T02:21:50.358Z,1008.43
2017-01-28T02:23:04.462Z,1008.38
2017-01-28T02:24:18.002Z,1008.36
2017-01-28T02:25:32.785Z,1008.35
2017-01-28T02:26:46.574Z,1008.39
2017-01-28T02:28:02.232Z,1008.35
2017-01-28T02:29:15.915Z,1008.39
2017-01-28T02:30:29.756Z,1008.37
2017-01-28T02:31:43.684Z,1008.28
2017-01-28T02:32:57.400Z,1008.34
2017-01-28T02:34:11.333Z,1008.3
2017-01-28T02:35:24.893Z,1008.31
2017-01-28T02:36:38.528Z,1008.28
2017-01-28T02:37:51.944Z,1008.3
2017-01-28T02:39:05.867Z,1008.3
2017-01-28T02:40:19.313Z,1008.26
2017-01-28T02:41:34.038Z,1008.26
2017-01-28T02:42:47.628Z,1008.2
2017-01-28T02:44:01.065Z,1008.24
2017-01-28T02:45:14.802Z,1008.2
2017-01-28T02:46:28.249Z,1008.18
2017-01-28T02:47:41.764Z,1008.16
2017-01-28T02:48:55.215Z,1008.12
2017-01-28T02:50:08.794Z,1008.08
2017-01-28T02:51:22.540Z,1008.08
2017-01-28T02:52:51.317Z,1008.15
2017-01-28T02:54:05.201Z,1008.11
2017-01-28T02:55:18.616Z,1008.08
2017-01-28T02:56:32.161Z,1008.1
2017-01-28T02:57:46.002Z,1008.12
2017-01-28T02:58:59.436Z,1008.13
2017-01-28T03:00:13.283Z,1008.1
2017-01-28T03:01:26.712Z,1008.03
2017-01-28T03:02:40.283Z,1008.03
2017-01-28T03:03:54.234Z,1008
2017-01-28T03:05:07.769Z,1008
2017-01-28T03:06:21.235Z,1008.02
2017-01-28T03:07:34.699Z,1007.93
2017-01-28T03:08:48.298Z,1008.04
2017-01-28T03:10:02.050Z,1007.98
2017-01-28T03:11:16.521Z,1008
2017-01-28T03:12:30.007Z,1007.98
2017-01-28T03:13:44.746Z,1007.99
2017-01-28T03:14:58.434Z,1008.03
2017-01-28T03:16:12.193Z,1007.99
2017-01-28T03:17:25.649Z,1008
2017-01-28T03:18:39.073Z,1007.99
2017-01-28T03:19:52.802Z,1007.99
2017-01-28T03:21:06.624Z,1008.01
2017-01-28T03:22:20.485Z,1008.09
2017-01-28T03:23:34.135Z,1008.08
2017-01-28T03:24:47.813Z,1008.13
2017-01-28T03:26:01.256Z,1008.13
2017-01-28T03:27:14.959Z,1008.13
2017-01-28T03:28:28.894Z,1008.16
2017-01-28T03:29:42.512Z,1008.19
2017-01-28T03:30:56.060Z,1008.17
2017-01-28T03:32:09.556Z,1008.2
2017-01-28T03:33:22.976Z,1008.21
2017-01-28T03:34:36.817Z,1008.2
2017-01-28T03:35:50.379Z,1008.26
2017-01-28T03:37:04.658Z,1008.25
2017-01-28T03:38:18.124Z,1008.21
2017-01-28T03:39:31.544Z,1008.22
2017-01-28T03:40:46.540Z,1008.24
2017-01-28T03:42:00.653Z,1008.23
2017-01-28T03:43:14.119Z,1008.23
2017-01-28T03:44:30.155Z,1008.22
2017-01-28T03:45:43.664Z,1008.24
2017-01-28T03:46:57.412Z,1008.21
2017-01-28T03:48:11.292Z,1008.26
2017-01-28T03:49:24.962Z,1008.2
2017-01-28T03:50:38.412Z,1008.19
2017-01-28T03:51:51.900Z,1008.14
2017-01-28T03:53:05.691Z,1008.16
2017-01-28T03:54:19.129Z,1008.18
2017-01-28T03:55:35.598Z,1008.17
2017-01-28T03:56:50.267Z,1008.2
2017-01-28T03:58:03.785Z,1008.16
2017-01-28T03:59:17.901Z,1008.16
2017-01-28T04:00:31.342Z,1008.16
2017-01-28T04:01:45.219Z,1008.14
2017-01-28T04:02:58.649Z,1008.14
2017-01-28T04:04:12.245Z,1008.15
2017-01-28T04:05:26.352Z,1008.11
2017-01-28T04:06:40.225Z,1008.09
2017-01-28T04:07:53.755Z,1008.1
2017-01-28T04:09:07.185Z,1008.12
2017-01-28T04:10:20.618Z,1008.13
2017-01-28T04:11:34.348Z,1008.11
2017-01-28T04:12:47.914Z,1008.13
2017-01-28T04:14:01.452Z,1008.12
2017-01-28T04:15:14.891Z,1008.11
2017-01-28T04:16:28.461Z,1008.1
2017-01-28T04:19:10.671Z,1008.12
2017-01-28T04:20:24.287Z,1008.13
2017-01-28T04:21:37.873Z,1008.15
2017-01-28T04:22:51.802Z,1008.1
2017-01-28T04:24:07.649Z,1008.08
2017-01-28T04:25:21.606Z,1008.05
2017-01-28T04:26:35.427Z,1008.09
2017-01-28T04:27:48.911Z,1008.07
2017-01-28T04:29:02.809Z,1008.07
2017-01-28T04:30:17.056Z,1008.14
2017-01-28T04:31:30.521Z,1008.07
2017-01-28T04:32:44.017Z,1008.08
2017-01-28T04:33:57.569Z,1008.09
2017-01-28T04:35:10.998Z,1008.09
2017-01-28T04:36:24.734Z,1008.1
2017-01-28T04:37:38.208Z,1008.09
2017-01-28T04:38:52.056Z,1008.09
2017-01-28T04:40:05.613Z,1008.12
2017-01-28T04:41:19.492Z,1008.13
2017-01-28T04:42:33.337Z,1008.15
2017-01-28T04:43:46.801Z,1008.15
2017-01-28T04:45:01.537Z,1008.18
2017-01-28T04:46:15.061Z,1008.21
2017-01-28T04:47:28.547Z,1008.17
2017-01-28T04:48:42.634Z,1008.23
2017-01-28T04:49:56.101Z,1008.22
2017-01-28T04:51:09.611Z,1008.24
2017-01-28T04:52:23.474Z,1008.26
2017-01-28T04:53:36.911Z,1008.29
2017-01-28T04:54:50.693Z,1008.28
2017-01-28T04:56:04.876Z,1008.25
2017-01-28T04:57:18.328Z,1008.26
2017-01-28T04:58:31.775Z,1008.24
2017-01-28T04:59:45.225Z,1008.29
2017-01-28T05:01:02.332Z,1008.26
2017-01-28T05:02:15.923Z,1008.3
2017-01-28T05:03:29.428Z,1008.26
2017-01-28T05:04:43.477Z,1008.25
2017-01-28T05:05:57.009Z,1008.24
2017-01-28T05:07:11.243Z,1008.28
2017-01-28T05:08:24.687Z,1008.27
2017-01-28T05:09:38.206Z,1008.29
2017-01-28T05:10:51.694Z,1008.23
2017-01-28T05:12:06.545Z,1008.21
2017-01-28T05:13:20.321Z,1008.19
2017-01-28T05:14:33.894Z,1008.18
2017-01-28T05:15:47.541Z,1008.15
2017-01-28T05:17:02.976Z,1008.18
2017-01-28T05:18:17.514Z,1008.22
2017-01-28T05:19:32.611Z,1008.23
2017-01-28T05:20:46.269Z,1008.2
2017-01-28T05:22:00.808Z,1008.15
2017-01-28T05:23:15.891Z,1008.21
2017-01-28T05:24:29.609Z,1008.2
2017-01-28T05:25:43.493Z,1008.19
2017-01-28T05:26:57.101Z,1008.19
2017-01-28T05:28:10.926Z,1008.23
2017-01-28T05:29:24.461Z,1008.27
2017-01-28T05:30:38.621Z,1008.32
2017-01-28T05:31:52.572Z,1008.27
2017-01-28T05:33:08.251Z,1008.24
2017-01-28T05:34:21.840Z,1008.17
2017-01-28T05:35:35.317Z,1008.21
2017-01-28T05:36:49.504Z,1008.19
2017-01-28T05:38:03.571Z,1008.21
2017-01-28T05:39:17.126Z,1008.21
2017-01-28T05:40:30.577Z,1008.22
2017-01-28T05:41:44.938Z,1008.24
2017-01-28T05:42:59.943Z,1008.22
2017-01-28T05:44:13.902Z,1008.22
2017-01-28T05:45:27.975Z,1008.26
2017-01-28T05:46:41.756Z,1008.29
2017-01-28T05:47:55.339Z,1008.27
2017-01-28T05:49:09.129Z,1008.29
2017-01-28T05:50:23.110Z,1008.28
2017-01-28T05:51:37.045Z,1008.33
2017-01-28T05:52:50.524Z,1008.35
2017-01-28T05:54:04.685Z,1008.37
2017-01-28T05:55:18.428Z,1008.38
2017-01-28T05:56:32.595Z,1008.38
2017-01-28T05:57:46.153Z,1008.4
2017-01-28T05:59:00.282Z,1008.4
2017-01-28T06:00:14.143Z,1008.38
2017-01-28T06:01:27.848Z,1008.39
2017-01-28T06:02:42.560Z,1008.41
2017-01-28T06:03:56.241Z,1008.48
2017-01-28T06:05:10.268Z,1008.46
2017-01-28T06:06:23.871Z,1008.47
2017-01-28T06:07:37.485Z,1008.49
2017-01-28T06:08:51.491Z,1008.46
2017-01-28T06:10:06.255Z,1008.46
2017-01-28T06:11:20.288Z,1008.42
2017-01-28T06:12:34.299Z,1008.46
2017-01-28T06:13:47.986Z,1008.47
2017-01-28T06:15:01.960Z,1008.46
2017-01-28T06:16:16.407Z,1008.47
2017-01-28T06:17:32.957Z,1008.47
2017-01-28T06:18:47.070Z,1008.47
2017-01-28T06:20:00.559Z,1008.54
2017-01-28T06:21:14.361Z,1008.56
2017-01-28T06:22:28.328Z,1008.55
2017-01-28T06:23:42.111Z,1008.54
2017-01-28T06:24:55.759Z,1008.53
2017-01-28T06:26:09.479Z,1008.57
2017-01-28T06:27:23.567Z,1008.57
2017-01-28T06:28:37.077Z,1008.55
2017-01-28T06:29:51.416Z,1008.57
2017-01-28T06:31:06.445Z,1008.59
2017-01-28T06:32:20.664Z,1008.58
2017-01-28T06:33:34.511Z,1008.59
2017-01-28T06:34:48.031Z,1008.64
2017-01-28T06:36:01.581Z,1008.63
2017-01-28T06:37:15.522Z,1008.67
2017-01-28T06:38:29.083Z,1008.69
2017-01-28T06:39:43.008Z,1008.66
2017-01-28T06:40:56.614Z,1008.69
2017-01-28T06:42:10.304Z,1008.7
2017-01-28T06:43:24.525Z,1008.74
2017-01-28T06:44:37.986Z,1008.75
2017-01-28T06:45:51.830Z,1008.8
2017-01-28T06:47:07.089Z,1008.75
2017-01-28T06:48:21.178Z,1008.78
2017-01-28T06:49:35.125Z,1008.79
2017-01-28T06:50:48.695Z,1008.79
2017-01-28T06:52:02.545Z,1008.81
2017-01-28T06:53:15.969Z,1008.81
2017-01-28T06:54:29.964Z,1008.77
2017-01-28T06:55:43.599Z,1008.77
2017-01-28T06:56:58.488Z,1008.74
2017-01-28T06:58:12.675Z,1008.73
2017-01-28T06:59:26.312Z,1008.74
2017-01-28T07:00:40.310Z,1008.68
2017-01-28T07:01:54.050Z,1008.68
2017-01-28T07:03:08.047Z,1008.65
2017-01-28T07:04:21.831Z,1008.66
2017-01-28T07:05:35.486Z,1008.63
2017-01-28T07:06:49.064Z,1008.62
2017-01-28T07:08:02.817Z,1008.6
2017-01-28T07:09:16.246Z,1008.64
2017-01-28T07:10:30.197Z,1008.59
2017-01-28T07:11:43.714Z,1008.6
2017-01-28T07:12:57.293Z,1008.61
2017-01-28T07:14:10.784Z,1008.6
2017-01-28T07:15:24.302Z,1008.6
2017-01-28T07:16:38.111Z,1008.58
2017-01-28T07:17:52.029Z,1008.63
2017-01-28T07:19:20.880Z,1008.61
2017-01-28T07:20:34.533Z,1008.6
2017-01-28T07:21:48.716Z,1008.56
2017-01-28T07:23:02.669Z,1008.64
2017-01-28T07:24:16.358Z,1008.68
2017-01-28T07:25:36.108Z,1008.67
2017-01-28T07:26:49.576Z,1008.67
2017-01-28T07:28:03.117Z,1008.65
2017-01-28T07:29:18.903Z,1008.66
2017-01-28T07:30:37.608Z,1008.71
2017-01-28T07:31:54.991Z,1008.71
2017-01-28T07:33:09.450Z,1008.73
2017-01-28T07:34:26.242Z,1008.73
2017-01-28T07:35:48.294Z,1008.71
2017-01-28T07:37:08.348Z,1008.71
2017-01-28T07:38:28.611Z,1008.74
2017-01-28T07:39:46.613Z,1008.71
2017-01-28T07:41:01.423Z,1008.74
2017-01-28T07:42:15.932Z,1008.79
2017-01-28T07:43:29.802Z,1008.78
2017-01-28T07:44:44.477Z,1008.83
2017-01-28T07:45:59.357Z,1008.81
2017-01-28T07:47:14.956Z,1008.74
2017-01-28T07:48:29.341Z,1008.77
2017-01-28T07:49:43.104Z,1008.78
2017-01-28T07:50:58.207Z,1008.79
2017-01-28T07:52:12.584Z,1008.8
2017-01-28T07:53:28.823Z,1008.92
2017-01-28T07:54:42.376Z,1008.92
2017-01-28T07:55:56.030Z,1008.92
2017-01-28T07:57:16.080Z,1008.94
2017-01-28T07:58:29.527Z,1008.9
2017-01-28T07:59:44.094Z,1008.88
2017-01-28T08:00:57.848Z,1008.86
2017-01-28T08:02:11.778Z,1008.84
2017-01-28T08:03:25.850Z,1008.89
2017-01-28T08:04:39.844Z,1008.9
2017-01-28T08:05:53.618Z,1008.88
2017-01-28T08:07:08.277Z,1008.88
2017-01-28T08:08:21.828Z,1008.88
2017-01-28T08:09:35.515Z,1008.93
2017-01-28T08:10:49.144Z,1008.94
2017-01-28T08:12:03.498Z,1008.94
2017-01-28T08:13:17.069Z,1008.88
2017-01-28T08:14:30.752Z,1008.89
2017-01-28T08:15:44.955Z,1008.9
2017-01-28T08:16:58.614Z,1008.94
2017-01-28T08:18:12.557Z,1008.97
2017-01-28T08:19:26.204Z,1008.96
2017-01-28T08:20:41.664Z,1008.99
2017-01-28T08:21:55.250Z,1008.95
2017-01-28T08:23:08.933Z,1008.93
2017-01-28T08:24:22.884Z,1008.93
2017-01-28T08:25:36.602Z,1008.96
2017-01-28T08:26:50.340Z,1008.93
2017-01-28T08:28:04.212Z,1008.94
2017-01-28T08:29:19.231Z,1008.94
2017-01-28T08:30:33.154Z,1008.97
2017-01-28T08:31:46.859Z,1008.93
2017-01-28T08:33:01.036Z,1008.93
2017-01-28T08:34:15.241Z,1008.95
2017-01-28T08:35:29.917Z,1008.98
2017-01-28T08:36:44.211Z,1008.93
2017-01-28T08:37:57.758Z,1008.99
2017-01-28T08:39:12.580Z,1009.02
2017-01-28T08:40:26.635Z,1009.02
2017-01-28T08:41:40.467Z,1009
2017-01-28T08:42:54.431Z,1009.04
2017-01-28T08:44:08.174Z,1009.01
2017-01-28T08:45:21.961Z,1009.02
2017-01-28T08:46:36.516Z,1009.04
2017-01-28T08:47:50.680Z,1009.01
2017-01-28T08:49:04.766Z,1008.94
2017-01-28T08:50:18.987Z,1008.96
2017-01-28T08:51:35.230Z,1008.96
2017-01-28T08:52:49.655Z,1008.99
2017-01-28T08:54:03.795Z,1008.98
2017-01-28T08:55:18.150Z,1008.96
2017-01-28T08:56:33.387Z,1008.98
2017-01-28T08:57:47.536Z,1008.98
2017-01-28T08:59:01.085Z,1008.93
2017-01-28T09:00:14.600Z,1008.99
2017-01-28T09:01:28.392Z,1008.93
2017-01-28T09:02:42.068Z,1008.93
2017-01-28T09:03:55.646Z,1008.95
2017-01-28T09:05:09.749Z,1008.99
2017-01-28T09:06:23.732Z,1009.02
2017-01-28T09:07:38.537Z,1009
2017-01-28T09:08:53.213Z,1008.98
2017-01-28T09:10:07.492Z,1008.98
2017-01-28T09:11:21.601Z,1009.01
2017-01-28T09:12:36.653Z,1009.01
2017-01-28T09:13:51.104Z,1009.03
2017-01-28T09:15:05.274Z,1009.02
2017-01-28T09:16:19.077Z,1009.05
2017-01-28T09:17:33.058Z,1009
2017-01-28T09:18:46.772Z,1008.95
2017-01-28T09:20:00.552Z,1009
2017-01-28T09:21:14.332Z,1009.01
2017-01-28T09:22:29.308Z,1008.98
2017-01-28T09:23:44.097Z,1008.96
2017-01-28T09:24:57.546Z,1009.02
2017-01-28T09:26:11.781Z,1008.99
2017-01-28T09:27:25.405Z,1008.98
2017-01-28T09:28:38.963Z,1009.03
2017-01-28T09:29:52.856Z,1009.06
2017-01-28T09:31:06.368Z,1009.05
2017-01-28T09:32:20.277Z,1009.12
2017-01-28T09:33:33.825Z,1009.11
2017-01-28T09:34:47.785Z,1009.05
2017-01-28T09:36:01.491Z,1009.04
2017-01-28T09:37:15.388Z,1009.02
2017-01-28T09:38:29.103Z,1009.05
2017-01-28T09:39:43.879Z,1009.05
2017-01-28T09:40:57.923Z,1009.08
2017-01-28T09:42:11.614Z,1009.08
2017-01-28T09:43:25.149Z,1009.12
2017-01-28T09:44:39.356Z,1009.15
2017-01-28T09:45:52.885Z,1009.16
2017-01-28T09:47:06.947Z,1009.09
2017-01-28T09:48:20.451Z,1009.09
2017-01-28T09:49:34.029Z,1009.04
2017-01-28T09:50:48.341Z,1009.07
2017-01-28T09:52:02.341Z,1009.05
2017-01-28T09:53:15.840Z,1009.04
2017-01-28T09:54:29.779Z,1009.02
2017-01-28T09:55:43.391Z,1009.03
2017-01-28T09:56:57.709Z,1009.02
2017-01-28T09:58:11.281Z,1009.06
2017-01-28T09:59:24.768Z,1009.04
2017-01-28T10:00:38.551Z,1009.05
2017-01-28T10:01:53.316Z,1009.06
2017-01-28T10:03:07.335Z,1009.06
2017-01-28T10:04:21.358Z,1009.09
2017-01-28T10:05:34.896Z,1009.04
2017-01-28T10:06:48.960Z,1009.07
2017-01-28T10:08:04.715Z,1009.01
2017-01-28T10:09:18.645Z,1009.09
2017-01-28T10:10:32.215Z,1009.12
2017-01-28T10:11:46.845Z,1009.13
2017-01-28T10:13:01.359Z,1009.07
2017-01-28T10:14:16.901Z,1009.08
2017-01-28T10:15:30.748Z,1009.06
2017-01-28T10:16:44.494Z,1009.12
2017-01-28T10:17:57.983Z,1009.07
2017-01-28T10:19:11.503Z,1009.1
2017-01-28T10:20:25.494Z,1009.13
2017-01-28T10:21:39.740Z,1009.16
2017-01-28T10:22:53.651Z,1009.2
2017-01-28T10:24:07.601Z,1009.2
2017-01-28T10:25:22.064Z,1009.15
2017-01-28T10:26:36.388Z,1009.23
2017-01-28T10:27:51.275Z,1009.23
2017-01-28T10:29:04.859Z,1009.19
2017-01-28T10:30:18.384Z,1009.2
2017-01-28T10:31:32.280Z,1009.14
2017-01-28T10:32:47.061Z,1009.14
2017-01-28T10:34:02.939Z,1009.09
2017-01-28T10:35:19.343Z,1009.1
2017-01-28T10:36:33.248Z,1009.1
2017-01-28T10:37:46.773Z,1009.09
2017-01-28T10:39:00.693Z,1009.11
2017-01-28T10:40:14.490Z,1009.11
2017-01-28T10:41:27.973Z,1009.12
2017-01-28T10:42:41.493Z,1009.2
2017-01-28T10:43:55.009Z,1009.2
2017-01-28T10:45:09.342Z,1009.2
2017-01-28T10:46:23.843Z,1009.23
2017-01-28T10:47:37.295Z,1009.19
2017-01-28T10:48:52.134Z,1009.23
2017-01-28T10:50:05.662Z,1009.23
2017-01-28T10:51:19.724Z,1009.23
2017-01-28T10:52:33.863Z,1009.28
2017-01-28T10:53:48.362Z,1009.21
2017-01-28T10:55:01.925Z,1009.28
2017-01-28T10:56:15.413Z,1009.25
2017-01-28T10:57:28.816Z,1009.3
2017-01-28T10:58:42.748Z,1009.28
2017-01-28T11:00:08.535Z,1009.3
2017-01-28T11:01:22.615Z,1009.28
2017-01-28T11:02:36.651Z,1009.25
2017-01-28T11:03:51.507Z,1009.21
2017-01-28T11:05:05.470Z,1009.18
2017-01-28T11:06:20.503Z,1009.22
2017-01-28T11:07:34.430Z,1009.22
2017-01-28T11:08:48.778Z,1009.19
2017-01-28T11:10:03.622Z,1009.16
2017-01-28T11:11:17.538Z,1009.14
2017-01-28T11:12:31.029Z,1009.11
2017-01-28T11:13:44.582Z,1009.12
2017-01-28T11:14:59.593Z,1009.09
2017-01-28T11:16:13.677Z,1009.07
2017-01-28T11:17:27.527Z,1009.06
2017-01-28T11:18:41.158Z,1009.06
2017-01-28T11:19:56.898Z,1009.04
2017-01-28T11:21:10.398Z,1009.02
2017-01-28T11:22:23.938Z,1008.95
2017-01-28T11:23:37.779Z,1008.96
2017-01-28T11:24:53.992Z,1008.93
2017-01-28T11:26:07.737Z,1008.86
2017-01-28T11:27:22.293Z,1008.92
2017-01-28T11:28:36.110Z,1008.85
2017-01-28T11:29:50.437Z,1008.83
2017-01-28T11:31:03.991Z,1008.85
2017-01-28T11:32:18.528Z,1008.83
2017-01-28T11:33:32.187Z,1008.82
2017-01-28T11:34:46.297Z,1008.8
2017-01-28T11:36:00.141Z,1008.8
2017-01-28T11:37:14.418Z,1008.86
2017-01-28T11:38:28.494Z,1008.82
2017-01-28T11:39:42.168Z,1008.83
2017-01-28T11:40:57.136Z,1008.87
2017-01-28T11:42:12.235Z,1008.82
2017-01-28T11:43:27.283Z,1008.79
2017-01-28T11:44:44.343Z,1008.78
2017-01-28T11:45:59.141Z,1008.73
2017-01-28T11:47:13.081Z,1008.75
2017-01-28T11:48:46.112Z,1008.68
2017-01-28T11:50:00.495Z,1008.66
2017-01-28T11:51:15.661Z,1008.67
2017-01-28T11:52:29.240Z,1008.67
2017-01-28T11:53:43.050Z,1008.66
2017-01-28T11:54:56.536Z,1008.68
2017-01-28T11:56:10.106Z,1008.67
2017-01-28T11:57:23.696Z,1008.7
2017-01-28T11:58:38.094Z,1008.74
2017-01-28T11:59:52.051Z,1008.69
2017-01-28T12:01:05.557Z,1008.66
2017-01-28T12:02:19.122Z,1008.63
2017-01-28T12:03:32.628Z,1008.62
2017-01-28T12:04:46.690Z,1008.71
2017-01-28T12:06:00.635Z,1008.67
2017-01-28T12:07:14.368Z,1008.72
2017-01-28T12:08:27.983Z,1008.73
2017-01-28T12:09:41.872Z,1008.7
2017-01-28T12:10:55.769Z,1008.64
2017-01-28T12:12:09.622Z,1008.66
2017-01-28T12:13:23.643Z,1008.62
2017-01-28T12:14:37.129Z,1008.6
2017-01-28T12:15:50.592Z,1008.61
2017-01-28T12:17:04.065Z,1008.62
2017-01-28T12:18:17.947Z,1008.58
2017-01-28T12:19:32.269Z,1008.48
2017-01-28T12:20:45.870Z,1008.42
2017-01-28T12:21:59.864Z,1008.47
2017-01-28T12:23:13.474Z,1008.56
2017-01-28T12:24:27.578Z,1008.45
2017-01-28T12:25:41.094Z,1008.38
2017-01-28T12:26:54.632Z,1008.39
2017-01-28T12:28:08.193Z,1008.45
2017-01-28T12:29:21.841Z,1008.53
2017-01-28T12:30:35.856Z,1008.69
2017-01-28T12:31:49.873Z,1008.59
2017-01-28T12:33:03.596Z,1008.53
2017-01-28T12:34:17.090Z,1008.57
2017-01-28T12:35:31.020Z,1008.56
2017-01-28T12:36:44.884Z,1008.49
2017-01-28T12:37:58.645Z,1008.57
2017-01-28T12:39:12.335Z,1008.5
2017-01-28T12:40:26.388Z,1008.54
2017-01-28T12:41:42.529Z,1008.57
2017-01-28T12:42:56.335Z,1008.6
2017-01-28T12:44:10.339Z,1008.62
2017-01-28T12:45:25.154Z,1008.61
2017-01-28T12:46:38.672Z,1008.55
2017-01-28T12:47:52.300Z,1008.54
2017-01-28T12:49:06.266Z,1008.49
2017-01-28T12:50:21.774Z,1008.5
2017-01-28T12:51:35.866Z,1008.52
2017-01-28T12:52:49.402Z,1008.44
2017-01-28T12:54:03.066Z,1008.41
2017-01-28T12:55:18.539Z,1008.39
2017-01-28T12:56:32.003Z,1008.38
2017-01-28T12:57:46.121Z,1008.39
2017-01-28T12:58:59.639Z,1008.41
2017-01-28T13:00:13.260Z,1008.41
2017-01-28T13:01:27.523Z,1008.38
2017-01-28T13:02:41.000Z,1008.38
2017-01-28T13:03:55.718Z,1008.37
2017-01-28T13:05:09.640Z,1008.28
2017-01-28T13:06:24.067Z,1008.25
2017-01-28T13:07:37.833Z,1008.19
2017-01-28T13:08:51.781Z,1008.16
2017-01-28T13:10:05.854Z,1008.15
2017-01-28T13:11:19.810Z,1008.14
2017-01-28T13:12:33.385Z,1008.13
2017-01-28T13:13:47.818Z,1008.16
2017-01-28T13:15:01.777Z,1008.19
2017-01-28T13:16:15.399Z,1008.19
2017-01-28T13:17:29.260Z,1008.21
2017-01-28T13:18:43.200Z,1008.22
2017-01-28T13:19:57.107Z,1008.23
2017-01-28T13:21:10.674Z,1008.29
2017-01-28T13:22:24.283Z,1008.24
2017-01-28T13:23:38.858Z,1008.26
2017-01-28T13:24:52.427Z,1008.25
2017-01-28T13:26:06.270Z,1008.26
2017-01-28T13:27:20.340Z,1008.25
2017-01-28T13:28:33.915Z,1008.26
2017-01-28T13:29:47.530Z,1008.25
2017-01-28T13:31:01.003Z,1008.26
2017-01-28T13:32:14.928Z,1008.26
2017-01-28T13:33:28.923Z,1008.27
2017-01-28T13:34:42.452Z,1008.26
2017-01-28T13:35:56.329Z,1008.32
2017-01-28T13:37:10.566Z,1008.3
2017-01-28T13:38:24.755Z,1008.23
2017-01-28T13:39:38.487Z,1008.24
2017-01-28T13:40:52.500Z,1008.23
2017-01-28T13:42:06.526Z,1008.27
2017-01-28T13:43:20.634Z,1008.32
2017-01-28T13:44:35.028Z,1008.31
2017-01-28T13:45:48.790Z,1008.29
2017-01-28T13:47:02.759Z,1008.27
2017-01-28T13:48:16.368Z,1008.28
2017-01-28T13:49:30.313Z,1008.26
2017-01-28T13:50:44.226Z,1008.26
2017-01-28T13:52:16.908Z,1008.21
2017-01-28T13:53:30.473Z,1008.18
2017-01-28T13:54:44.800Z,1008.13
2017-01-28T13:55:58.540Z,1008.17
2017-01-28T13:57:12.088Z,1008.17
2017-01-28T13:58:28.467Z,1008.18
2017-01-28T13:59:54.736Z,1008.15
2017-01-28T14:01:09.082Z,1008.18
2017-01-28T14:02:22.663Z,1008.16
2017-01-28T14:03:36.235Z,1008.09
2017-01-28T14:04:49.716Z,1008.06
2017-01-28T14:06:03.181Z,1008.08
2017-01-28T14:07:17.365Z,1008.08
2017-01-28T14:08:30.988Z,1008.08
2017-01-28T14:09:44.563Z,1008.06
2017-01-28T14:10:58.244Z,1008.08
2017-01-28T14:12:12.396Z,1008.03
2017-01-28T14:13:26.369Z,1007.97
2017-01-28T14:14:40.410Z,1007.96
2017-01-28T14:15:54.312Z,1007.96
2017-01-28T14:17:08.734Z,1007.91
2017-01-28T14:18:22.429Z,1007.88
2017-01-28T14:19:36.323Z,1007.9
2017-01-28T14:20:49.860Z,1007.9
2017-01-28T14:22:04.274Z,1007.92
2017-01-28T14:23:18.197Z,1007.96
2017-01-28T14:24:32.180Z,1008.03
2017-01-28T14:25:45.949Z,1008.05
2017-01-28T14:26:59.848Z,1008.06
2017-01-28T14:28:13.364Z,1008
2017-01-28T14:29:27.040Z,1007.99
2017-01-28T14:30:41.041Z,1007.93
2017-01-28T14:31:54.826Z,1008.01
2017-01-28T14:33:08.529Z,1007.99
2017-01-28T14:34:22.449Z,1007.96
2017-01-28T14:35:36.382Z,1007.94
2017-01-28T14:36:49.899Z,1007.9
2017-01-28T14:38:04.211Z,1007.95
2017-01-28T14:39:18.136Z,1007.93
2017-01-28T14:40:31.629Z,1007.92
2017-01-28T14:41:45.096Z,1007.94
2017-01-28T14:42:58.592Z,1007.95
2017-01-28T14:44:12.476Z,1008.03
2017-01-28T14:45:27.294Z,1008.03
2017-01-28T14:46:40.772Z,1008.05
2017-01-28T14:47:54.815Z,1008.06
2017-01-28T14:49:08.440Z,1008.1
2017-01-28T14:50:22.539Z,1008.16
2017-01-28T14:51:36.517Z,1008.19
2017-01-28T14:52:49.979Z,1008.23
2017-01-28T14:54:03.855Z,1008.17
2017-01-28T14:55:17.546Z,1008.21
2017-01-28T14:56:32.592Z,1008.17
2017-01-28T14:57:47.124Z,1008.17
2017-01-28T14:59:01.224Z,1008.16
2017-01-28T15:00:14.762Z,1008.16
2017-01-28T15:01:29.619Z,1008.14